Terminal Aerodrome Forecast
Issued by NWS

Home | Current Version | Previous Version | Graphics & Text | Print | Product List | Glossary On
Versions: 1 2 3 4 5 6 7 8 9 10 11 12 13 14 15 16 17 18
000
FTUS43 KUNR 200520
TAFGCC
TAF
KGCC 200520Z 2006/2106 25008KT P6SM SCT150
     FM201400 29006KT 5SM -SN OVC010
     FM201900 30010KT P6SM BKN025=

USA.gov is the U.S. government's official web portal to all federal, state and local government web resources and services.